Time;durP1;ratioP1;P1;durP2;ratioP2;P2;SDS_P1;SDS_P2;PMS_P1;PMS_P2;Temp;Humidity;BMP_temperature;BMP_pressure;BME280_temperature;BME280_humidity;BME280_pressure;Samples;Min_cycle;Max_cycle;Signal;HPM_P1;HPM_P2
2023/01/07 00:01:32;;;;;;;67.95;32.55;;;8.30;99.90;;;;;;5025997;28;20092;-51
2023/01/07 00:03:59;;;;;;;63.42;30.45;;;8.50;99.90;;;;;;5026539;28;20116;-48
2023/01/07 00:06:28;;;;;;;76.38;30.35;;;8.40;99.90;;;;;;5026742;28;20053;-50
2023/01/07 00:08:55;;;;;;;78.10;32.22;;;8.50;99.90;;;;;;5026138;28;20431;-48
2023/01/07 00:11:24;;;;;;;66.57;30.08;;;8.50;99.90;;;;;;5028066;28;20091;-50
2023/01/07 00:13:52;;;;;;;59.58;30.02;;;8.50;99.90;;;;;;5029787;28;20041;-48
2023/01/07 00:16:19;;;;;;;66.78;31.77;;;8.50;99.90;;;;;;5030247;28;20042;-49
2023/01/07 00:18:45;;;;;;;68.75;31.02;;;8.60;99.90;;;;;;5029708;28;20498;-49
2023/01/07 00:21:14;;;;;;;63.00;28.80;;;8.90;99.90;;;;;;5030370;28;20033;-49
2023/01/07 00:23:41;;;;;;;69.95;30.25;;;8.70;99.90;;;;;;5030265;28;20394;-51
2023/01/07 00:26:19;;;;;;;68.45;29.73;;;8.80;99.90;;;;;;5030252;28;20840;-48
2023/01/07 00:28:46;;;;;;;72.18;30.50;;;8.80;99.90;;;;;;5030073;28;20046;-48
2023/01/07 00:31:17;;;;;;;78.35;30.77;;;8.90;99.90;;;;;;5030105;28;20111;-49
2023/01/07 00:33:50;;;;;;;71.25;30.45;;;8.80;99.90;;;;;;5029886;28;20048;-49
2023/01/07 00:36:17;;;;;;;70.72;31.13;;;9.10;99.90;;;;;;5029678;28;20915;-49
2023/01/07 00:38:43;;;;;;;74.45;29.27;;;8.90;99.90;;;;;;5045060;28;20056;-50
2023/01/07 00:41:09;;;;;;;81.95;30.17;;;8.90;99.90;;;;;;5029207;28;20495;-48
2023/01/07 00:43:35;;;;;;;105.60;32.92;;;9.30;99.90;;;;;;5029683;28;20053;-51
2023/01/07 00:46:01;;;;;;;70.75;28.17;;;9.00;99.90;;;;;;5029553;28;20045;-48
2023/01/07 00:48:26;;;;;;;72.78;30.02;;;9.00;99.90;;;;;;5029615;28;20042;-49
2023/01/07 00:50:53;;;;;;;69.13;29.48;;;9.10;99.90;;;;;;5029223;28;20044;-49
2023/01/07 00:53:20;;;;;;;73.85;30.52;;;9.10;99.90;;;;;;5029477;28;20041;-48
2023/01/07 00:55:48;;;;;;;64.45;29.02;;;9.30;99.90;;;;;;5029060;28;20660;-49
2023/01/07 00:58:17;;;;;;;59.95;28.80;;;9.10;99.90;;;;;;5029150;28;20072;-50
2023/01/07 01:00:43;;;;;;;62.80;28.48;;;9.10;99.90;;;;;;5028768;28;20050;-48
2023/01/07 01:03:12;;;;;;;68.72;28.58;;;9.20;99.90;;;;;;5029614;28;20052;-48
2023/01/07 01:05:38;;;;;;;65.47;29.90;;;9.20;99.90;;;;;;5029335;28;20041;-49
2023/01/07 01:08:04;;;;;;;75.13;30.52;;;9.20;99.90;;;;;;5027871;28;20123;-47
2023/01/07 01:10:30;;;;;;;68.65;30.40;;;9.30;99.90;;;;;;5029574;28;20049;-48
2023/01/07 01:12:56;;;;;;;78.82;30.08;;;9.60;99.90;;;;;;5029456;28;20118;-49
2023/01/07 01:15:22;;;;;;;65.82;31.15;;;9.30;99.90;;;;;;5029383;28;20646;-48
2023/01/07 01:17:50;;;;;;;78.00;30.80;;;9.30;99.90;;;;;;5029313;28;20041;-48
2023/01/07 01:20:16;;;;;;;72.03;30.85;;;9.30;99.90;;;;;;5028920;28;20053;-48
2023/01/07 01:22:43;;;;;;;73.45;31.15;;;9.40;99.90;;;;;;5029089;28;20121;-48
2023/01/07 01:25:09;;;;;;;62.15;28.60;;;9.40;99.90;;;;;;5029151;28;20091;-48
2023/01/07 01:27:35;;;;;;;76.53;31.50;;;9.40;99.90;;;;;;5029759;28;20045;-50
2023/01/07 01:30:01;;;;;;;63.10;29.50;;;9.40;99.90;;;;;;5029105;28;20284;-50
2023/01/07 01:32:28;;;;;;;62.88;29.13;;;9.40;99.90;;;;;;5027808;28;20042;-48
2023/01/07 01:34:53;;;;;;;66.40;27.52;;;9.40;99.90;;;;;;5027963;28;20049;-49
2023/01/07 01:37:19;;;;;;;61.78;28.00;;;9.40;99.90;;;;;;5028718;28;20048;-48
2023/01/07 01:39:45;;;;;;;63.70;29.48;;;9.50;99.90;;;;;;5028816;28;20100;-48
2023/01/07 01:42:22;;;;;;;70.00;29.02;;;9.50;99.90;;;;;;5028812;28;20041;-47
2023/01/07 01:44:57;;;;;;;71.40;30.20;;;9.50;99.90;;;;;;5028435;28;20045;-51
2023/01/07 01:47:42;;;;;;;67.15;28.52;;;9.50;99.90;;;;;;5028122;28;20139;-48
2023/01/07 01:50:31;;;;;;;78.10;31.40;;;9.50;99.90;;;;;;5028649;28;20056;-48
2023/01/07 01:53:05;;;;;;;77.45;31.20;;;9.60;99.90;;;;;;5028306;28;20403;-48
2023/01/07 01:55:42;;;;;;;74.88;30.80;;;9.60;99.90;;;;;;5028866;28;20055;-48
2023/01/07 01:58:17;;;;;;;63.65;29.30;;;9.50;99.90;;;;;;5028589;28;20045;-50
2023/01/07 02:00:43;;;;;;;74.68;31.30;;;9.80;99.90;;;;;;5028157;28;20057;-48
2023/01/07 02:03:13;;;;;;;90.38;35.50;;;9.60;99.90;;;;;;5027981;28;20124;-49
2023/01/07 02:05:40;;;;;;;80.88;32.03;;;9.60;99.90;;;;;;5028256;28;20053;-51
2023/01/07 02:08:07;;;;;;;83.43;33.03;;;9.70;99.90;;;;;;5027798;28;20047;-47
2023/01/07 02:10:34;;;;;;;78.85;32.92;;;9.60;99.90;;;;;;5028288;28;20079;-49
2023/01/07 02:13:11;;;;;;;68.72;31.60;;;10.00;99.90;;;;;;5027894;28;20052;-48
2023/01/07 02:15:50;;;;;;;66.55;31.10;;;9.70;99.90;;;;;;5028235;28;20069;-48
2023/01/07 02:18:25;;;;;;;73.65;32.13;;;9.70;99.90;;;;;;5027732;28;20045;-48
2023/01/07 02:21:00;;;;;;;69.47;31.58;;;9.70;99.90;;;;;;5027986;28;20045;-48
2023/01/07 02:24:07;;;;;;;66.68;32.30;;;9.70;99.90;;;;;;5028555;28;20088;-48
2023/01/07 02:26:39;;;;;;;71.72;31.60;;;9.70;99.90;;;;;;5026731;28;20045;-49
2023/01/07 02:29:30;;;;;;;66.47;32.03;;;9.70;99.90;;;;;;5027361;28;20080;-47
2023/01/07 02:32:05;;;;;;;74.53;32.67;;;9.70;99.90;;;;;;5027548;28;20072;-48
2023/01/07 02:34:48;;;;;;;73.82;33.00;;;9.70;99.90;;;;;;5026541;28;20781;-49
2023/01/07 02:37:37;;;;;;;81.95;33.70;;;9.70;99.90;;;;;;5027945;28;20052;-51
2023/01/07 02:40:16;;;;;;;58.42;30.27;;;9.70;99.90;;;;;;5027869;28;20049;-48
2023/01/07 02:43:10;;;;;;;62.58;30.75;;;9.70;99.90;;;;;;5026803;28;20478;-48
2023/01/07 02:46:17;;;;;;;59.58;30.10;;;9.70;99.90;;;;;;5028364;28;20038;-48
2023/01/07 02:48:44;;;;;;;60.53;31.25;;;9.70;99.90;;;;;;5027639;28;20274;-48
2023/01/07 02:51:10;;;;;;;62.55;30.92;;;9.70;99.90;;;;;;5027327;28;20057;-48
2023/01/07 02:53:37;;;;;;;58.53;31.25;;;9.70;99.90;;;;;;5026331;28;20041;-49
2023/01/07 02:56:39;;;;;;;72.50;33.15;;;10.00;99.90;;;;;;5027170;28;20045;-49
2023/01/07 02:59:05;;;;;;;;;;;9.70;99.90;;;;;;5027796;28;20050;-49
2023/01/07 03:01:55;;;;;;;58.00;31.25;;;9.70;99.90;;;;;;5027325;28;19987;-48
2023/01/07 03:04:52;;;;;;;60.25;30.38;;;9.70;99.90;;;;;;5027045;28;20117;-51
2023/01/07 03:07:27;;;;;;;60.17;30.35;;;9.70;99.90;;;;;;5027461;28;20053;-48
2023/01/07 03:09:57;;;;;;;59.63;31.95;;;9.60;99.90;;;;;;5027356;28;20061;-48
2023/01/07 03:12:35;;;;;;;59.17;31.38;;;9.50;99.90;;;;;;5026952;28;20608;-49
2023/01/07 03:15:06;;;;;;;56.70;30.33;;;9.60;99.90;;;;;;5027646;28;20053;-48
2023/01/07 03:17:53;;;;;;;56.05;30.02;;;9.60;99.90;;;;;;5026932;28;20045;-48
2023/01/07 03:20:21;;;;;;;53.13;31.08;;;9.90;99.90;;;;;;5026960;28;20045;-48
2023/01/07 03:22:47;;;;;;;57.20;31.00;;;9.90;99.90;;;;;;5026614;28;20056;-49
2023/01/07 03:25:13;;;;;;;53.95;29.15;;;9.60;99.90;;;;;;5026608;28;20081;-49
2023/01/07 03:27:44;;;;;;;57.33;32.55;;;9.70;99.90;;;;;;5026880;28;20079;-49
2023/01/07 03:30:13;;;;;;;63.00;30.70;;;9.70;99.90;;;;;;5027031;28;20415;-48
2023/01/07 03:32:43;;;;;;;50.10;28.40;;;9.60;99.90;;;;;;5027224;28;20053;-51
2023/01/07 03:35:09;;;;;;;52.58;29.67;;;9.70;99.90;;;;;;5026099;28;20095;-49
2023/01/07 03:37:36;;;;;;;54.65;30.02;;;9.60;99.90;;;;;;5026495;28;20081;-50
2023/01/07 03:40:08;;;;;;;47.42;28.35;;;9.70;99.90;;;;;;5026428;28;20047;-49
2023/01/07 03:42:40;;;;;;;48.47;28.63;;;9.70;99.90;;;;;;5026885;28;20148;-50
2023/01/07 03:45:25;;;;;;;47.13;28.25;;;9.60;99.90;;;;;;5026200;28;20804;-48
2023/01/07 03:47:54;;;;;;;50.50;28.95;;;9.90;99.90;;;;;;5027044;28;20219;-48
2023/01/07 03:50:21;;;;;;;48.30;28.42;;;9.50;99.90;;;;;;5026940;28;20132;-48
2023/01/07 03:52:47;;;;;;;45.28;27.40;;;9.60;99.90;;;;;;5026658;28;20181;-49
2023/01/07 03:55:13;;;;;;;48.40;28.35;;;9.80;99.90;;;;;;5026425;28;20052;-48
2023/01/07 03:57:39;;;;;;;41.25;27.05;;;9.60;99.90;;;;;;5026913;28;20095;-50
2023/01/07 04:00:08;;;;;;;47.05;27.38;;;9.60;99.90;;;;;;5026530;28;20053;-48
2023/01/07 04:02:33;;;;;;;41.17;25.58;;;9.60;99.90;;;;;;5027030;28;20045;-49
2023/01/07 04:04:59;;;;;;;41.83;28.10;;;9.60;99.90;;;;;;5026340;28;20128;-49
2023/01/07 04:07:25;;;;;;;40.13;25.77;;;9.60;99.90;;;;;;5024481;28;20060;-50
2023/01/07 04:09:50;;;;;;;43.60;26.67;;;9.60;99.90;;;;;;5026395;28;20053;-49
2023/01/07 04:12:17;;;;;;;43.30;26.05;;;9.50;99.90;;;;;;5026182;28;20167;-48
2023/01/07 04:14:43;;;;;;;45.35;26.05;;;9.40;99.90;;;;;;5026285;28;20087;-47
2023/01/07 04:17:09;;;;;;;45.78;27.33;;;9.50;99.90;;;;;;5026261;28;20041;-49
2023/01/07 04:19:37;;;;;;;44.35;26.63;;;9.40;99.90;;;;;;5026187;28;20057;-48
2023/01/07 04:22:04;;;;;;;56.10;28.15;;;9.40;99.90;;;;;;5026714;28;20047;-49
2023/01/07 04:24:30;;;;;;;44.83;26.63;;;9.30;99.90;;;;;;5026422;28;20116;-48
2023/01/07 04:26:56;;;;;;;40.13;26.02;;;9.30;99.90;;;;;;5026586;28;20121;-47
2023/01/07 04:29:22;;;;;;;42.15;25.98;;;9.30;99.90;;;;;;5026336;28;20042;-48
2023/01/07 04:31:48;;;;;;;40.63;24.77;;;9.30;99.90;;;;;;5026836;28;20471;-50
2023/01/07 04:34:14;;;;;;;42.00;25.80;;;9.30;99.90;;;;;;5026290;28;20441;-49
2023/01/07 04:36:39;;;;;;;45.63;26.60;;;9.50;99.90;;;;;;5026665;28;20045;-49
2023/01/07 04:39:05;;;;;;;40.22;25.48;;;9.40;99.90;;;;;;5026245;28;20050;-49
2023/01/07 04:41:31;;;;;;;36.50;24.85;;;9.30;99.90;;;;;;5026251;28;20072;-48
2023/01/07 04:43:57;;;;;;;41.65;24.52;;;9.30;99.90;;;;;;5026343;28;20094;-49
2023/01/07 04:46:24;;;;;;;35.08;24.23;;;9.30;99.90;;;;;;5026121;28;20044;-51
2023/01/07 04:48:49;;;;;;;35.75;23.70;;;9.20;99.90;;;;;;5026763;28;20053;-50
2023/01/07 04:51:15;;;;;;;40.80;24.20;;;9.30;99.90;;;;;;5026701;28;20094;-52
2023/01/07 04:53:41;;;;;;;36.55;24.05;;;9.30;99.90;;;;;;5026535;28;20034;-49
2023/01/07 04:56:07;;;;;;;35.97;23.52;;;9.30;99.90;;;;;;5026332;28;20125;-50
2023/01/07 04:58:33;;;;;;;42.20;22.42;;;9.40;99.90;;;;;;5029909;28;20426;-49
2023/01/07 05:00:59;;;;;;;36.72;22.50;;;9.20;99.90;;;;;;5029862;28;20115;-50
2023/01/07 05:03:25;;;;;;;38.30;23.42;;;9.20;99.90;;;;;;5030147;28;20107;-50
2023/01/07 05:05:51;;;;;;;35.72;23.33;;;9.20;99.90;;;;;;5045287;28;20357;-48
2023/01/07 05:08:16;;;;;;;34.90;21.63;;;9.20;99.90;;;;;;5029877;28;20048;-49
2023/01/07 05:10:42;;;;;;;36.55;23.73;;;9.50;99.90;;;;;;5029769;28;20080;-49
2023/01/07 05:13:14;;;;;;;34.97;21.33;;;9.20;99.90;;;;;;5029477;28;20781;-48
2023/01/07 05:15:39;;;;;;;33.47;21.33;;;9.20;99.90;;;;;;5029498;28;20045;-49
2023/01/07 05:18:06;;;;;;;33.70;21.20;;;9.40;99.90;;;;;;5029524;28;20644;-50
2023/01/07 05:20:31;;;;;;;34.10;21.15;;;9.80;99.90;;;;;;5029451;28;20041;-49
2023/01/07 05:22:57;;;;;;;33.60;20.83;;;9.30;99.90;;;;;;5028617;28;20095;-49
2023/01/07 05:25:23;;;;;;;33.60;21.73;;;9.30;99.90;;;;;;5029187;28;20038;-47
2023/01/07 05:27:48;;;;;;;32.00;19.65;;;9.50;99.90;;;;;;5029179;28;20041;-48
2023/01/07 05:30:14;;;;;;;29.92;19.25;;;9.20;99.90;;;;;;5029103;28;20071;-49
2023/01/07 05:32:40;;;;;;;33.40;19.95;;;9.20;99.90;;;;;;5028797;28;20084;-48
2023/01/07 05:35:06;;;;;;;31.75;20.30;;;9.20;99.90;;;;;;5029182;28;20130;-51
2023/01/07 05:37:31;;;;;;;30.13;20.63;;;9.20;99.90;;;;;;5028965;28;20055;-49
2023/01/07 05:39:57;;;;;;;31.45;19.60;;;9.40;99.90;;;;;;5029550;28;20045;-49
2023/01/07 05:42:23;;;;;;;28.83;19.65;;;9.50;99.90;;;;;;5027985;28;20415;-49
2023/01/07 05:44:48;;;;;;;28.13;19.55;;;9.40;99.90;;;;;;5029567;28;20029;-48
2023/01/07 05:47:14;;;;;;;28.08;19.02;;;9.30;99.90;;;;;;5029053;28;20407;-49
2023/01/07 05:49:40;;;;;;;27.83;18.33;;;9.30;99.90;;;;;;5029084;28;20073;-48
2023/01/07 05:52:05;;;;;;;30.20;19.15;;;9.20;99.90;;;;;;5028932;28;20095;-48
2023/01/07 05:54:31;;;;;;;29.90;19.45;;;9.30;99.90;;;;;;5028616;28;20948;-47
2023/01/07 05:56:57;;;;;;;26.27;19.10;;;9.30;99.90;;;;;;5029036;28;20079;-49
2023/01/07 05:59:22;;;;;;;30.48;18.67;;;9.30;99.90;;;;;;5028843;28;20621;-50
2023/01/07 06:01:48;;;;;;;25.25;17.75;;;9.30;99.90;;;;;;5028673;28;20061;-48
2023/01/07 06:04:14;;;;;;;26.63;17.92;;;9.30;99.90;;;;;;5029098;28;20085;-49
2023/01/07 06:06:39;;;;;;;27.08;17.55;;;9.30;99.90;;;;;;5029097;28;20041;-48
2023/01/07 06:09:05;;;;;;;24.30;16.42;;;9.60;99.90;;;;;;5027919;28;20053;-49
2023/01/07 06:11:31;;;;;;;22.92;16.70;;;9.30;99.90;;;;;;5028089;28;20526;-49
2023/01/07 06:13:57;;;;;;;26.38;18.08;;;9.30;99.90;;;;;;5028687;28;20133;-49
2023/01/07 06:16:22;;;;;;;22.73;16.25;;;9.30;99.90;;;;;;5028154;28;20041;-48
2023/01/07 06:18:48;;;;;;;25.77;16.88;;;9.30;99.90;;;;;;5027879;28;20124;-48
2023/01/07 06:21:15;;;;;;;22.83;15.98;;;9.20;99.90;;;;;;5028036;28;20045;-48
2023/01/07 06:23:42;;;;;;;22.48;17.13;;;9.20;99.90;;;;;;5027875;28;20320;-47
2023/01/07 06:26:08;;;;;;;19.85;15.68;;;9.20;99.90;;;;;;5027901;28;20124;-51
2023/01/07 06:28:34;;;;;;;22.50;15.32;;;9.20;99.90;;;;;;5027830;28;20121;-49
2023/01/07 06:30:59;;;;;;;21.50;14.75;;;9.20;99.90;;;;;;5028119;28;20046;-49
2023/01/07 06:33:25;;;;;;;21.55;14.50;;;9.20;99.90;;;;;;5027544;28;20053;-49
2023/01/07 06:35:51;;;;;;;22.33;14.38;;;9.30;99.90;;;;;;5027567;28;20049;-50
2023/01/07 06:38:16;;;;;;;20.20;14.10;;;9.50;99.90;;;;;;5028151;28;20052;-48
2023/01/07 06:40:43;;;;;;;18.75;14.25;;;9.20;99.90;;;;;;5027568;28;20123;-49
2023/01/07 06:43:09;;;;;;;19.55;12.95;;;9.20;99.90;;;;;;5028039;28;20174;-48
2023/01/07 06:45:35;;;;;;;17.98;13.50;;;9.20;99.90;;;;;;5027458;28;20462;-49
2023/01/07 06:48:01;;;;;;;22.02;14.32;;;9.20;99.90;;;;;;5027606;28;20071;-50
2023/01/07 06:50:26;;;;;;;19.95;13.80;;;9.20;99.90;;;;;;5027919;28;20092;-49
2023/01/07 06:52:52;;;;;;;16.33;12.13;;;9.20;99.90;;;;;;5027430;28;20128;-48
2023/01/07 06:55:18;;;;;;;16.92;12.68;;;9.20;99.90;;;;;;5027449;28;20076;-48
2023/01/07 06:57:44;;;;;;;17.00;12.82;;;9.20;99.90;;;;;;5027301;28;20045;-50
2023/01/07 07:00:10;;;;;;;16.85;12.27;;;9.30;99.90;;;;;;5027209;28;20157;-49
2023/01/07 07:02:36;;;;;;;17.60;12.05;;;9.20;99.90;;;;;;5027700;28;20053;-49
2023/01/07 07:05:01;;;;;;;15.10;11.23;;;9.20;99.90;;;;;;5027645;28;20037;-48
2023/01/07 07:07:27;;;;;;;14.45;11.90;;;9.20;99.90;;;;;;5027689;28;20037;-50
2023/01/07 07:09:53;;;;;;;15.93;11.23;;;9.40;99.90;;;;;;5027729;28;20049;-49
2023/01/07 07:12:18;;;;;;;13.95;11.38;;;9.20;99.90;;;;;;5027327;28;20120;-50
2023/01/07 07:14:44;;;;;;;18.05;11.10;;;9.20;99.90;;;;;;5027581;28;20042;-48
2023/01/07 07:17:10;;;;;;;17.88;10.82;;;9.20;99.90;;;;;;5027208;28;20700;-48
2023/01/07 07:19:36;;;;;;;16.42;11.27;;;9.20;99.90;;;;;;5026749;28;20046;-50
2023/01/07 07:22:02;;;;;;;15.88;10.30;;;9.40;99.90;;;;;;5026711;28;20048;-49
2023/01/07 07:24:28;;;;;;;18.70;11.00;;;9.20;99.90;;;;;;5027406;28;20038;-48
2023/01/07 07:26:53;;;;;;;13.43;9.57;;;9.10;99.90;;;;;;5027200;28;20037;-48
2023/01/07 07:29:19;;;;;;;16.20;9.65;;;9.20;99.90;;;;;;5027467;28;20053;-49
2023/01/07 07:31:44;;;;;;;12.50;9.63;;;9.10;99.90;;;;;;5025425;28;20769;-47
2023/01/07 07:34:10;;;;;;;15.10;9.50;;;9.10;99.90;;;;;;5016064;28;20087;-45
2023/01/07 07:36:36;;;;;;;13.65;10.55;;;9.10;99.90;;;;;;5039917;28;20461;-46
2023/01/07 07:39:03;;;;;;;14.65;9.18;;;9.10;99.90;;;;;;5044705;28;20553;-45
2023/01/07 07:41:29;;;;;;;11.55;8.68;;;9.10;99.90;;;;;;5046367;28;20639;-46
2023/01/07 07:43:55;;;;;;;13.35;8.55;;;9.20;99.90;;;;;;5045509;28;20036;-42
2023/01/07 07:46:20;;;;;;;13.68;8.75;;;9.10;99.90;;;;;;5046115;28;20067;-45
2023/01/07 07:48:48;;;;;;;11.98;8.82;;;9.40;99.90;;;;;;5045838;28;20045;-40
2023/01/07 07:51:14;;;;;;;12.38;8.88;;;9.10;99.90;;;;;;5046148;28;20510;-40
2023/01/07 07:53:40;;;;;;;12.57;8.35;;;9.10;99.90;;;;;;5046422;28;20076;-40
2023/01/07 07:56:09;;;;;;;13.15;8.43;;;9.00;99.90;;;;;;5045969;28;20475;-42
2023/01/07 07:58:35;;;;;;;10.93;8.88;;;9.00;99.90;;;;;;5046411;28;20110;-42
2023/01/07 08:01:00;;;;;;;12.82;9.13;;;8.90;99.90;;;;;;5045840;28;20435;-42
2023/01/07 08:03:26;;;;;;;11.55;7.95;;;9.00;99.90;;;;;;5046270;28;20056;-42
2023/01/07 08:05:52;;;;;;;10.73;8.32;;;9.00;99.90;;;;;;5046468;28;20373;-43
2023/01/07 08:08:17;;;;;;;13.50;8.15;;;8.90;99.90;;;;;;5047092;28;20037;-44
2023/01/07 08:10:43;;;;;;;11.10;8.43;;;8.90;99.90;;;;;;5046519;28;20049;-43
2023/01/07 08:13:09;;;;;;;10.88;7.95;;;8.80;99.90;;;;;;5046033;28;20071;-43
2023/01/07 08:15:35;;;;;;;10.98;7.95;;;8.90;99.90;;;;;;5046368;28;20053;-44
2023/01/07 08:18:07;;;;;;;10.38;7.75;;;9.00;99.90;;;;;;5046417;28;20052;-45
2023/01/07 08:20:34;;;;;;;9.68;6.85;;;9.00;99.90;;;;;;5046722;28;20692;-43
2023/01/07 08:23:01;;;;;;;10.32;7.68;;;9.00;99.90;;;;;;5046686;28;20049;-44
2023/01/07 08:25:29;;;;;;;12.13;7.93;;;9.00;99.90;;;;;;5046678;28;20481;-44
2023/01/07 08:27:55;;;;;;;11.27;7.45;;;9.00;99.90;;;;;;5046329;28;20049;-45
2023/01/07 08:30:21;;;;;;;10.95;7.10;;;9.00;99.90;;;;;;5046711;28;20045;-45
2023/01/07 08:32:47;;;;;;;11.60;7.53;;;9.00;99.90;;;;;;5049012;28;20414;-43
2023/01/07 08:35:14;;;;;;;11.27;7.38;;;10.00;99.90;;;;;;5049957;28;20037;-43
2023/01/07 08:37:41;;;;;;;10.30;8.05;;;9.10;99.90;;;;;;5050283;28;20035;-43
2023/01/07 08:40:07;;;;;;;9.77;7.22;;;9.10;99.90;;;;;;5049929;28;20219;-43
2023/01/07 08:42:33;;;;;;;11.32;7.20;;;9.10;99.90;;;;;;5049822;28;20676;-44
2023/01/07 08:44:58;;;;;;;10.52;7.40;;;9.10;99.90;;;;;;5050220;28;20037;-45
2023/01/07 08:47:27;;;;;;;11.15;7.38;;;9.10;99.90;;;;;;5050188;28;20048;-44
2023/01/07 08:49:56;;;;;;;10.73;7.18;;;9.00;99.90;;;;;;5049622;28;20127;-44
2023/01/07 08:52:23;;;;;;;11.63;8.05;;;8.90;99.90;;;;;;5050040;28;20475;-46
2023/01/07 08:54:49;;;;;;;11.65;7.75;;;9.00;99.90;;;;;;5049807;28;20084;-43
2023/01/07 08:57:16;;;;;;;11.15;6.95;;;8.90;99.90;;;;;;5049518;28;20067;-43
2023/01/07 08:59:42;;;;;;;11.68;6.82;;;8.90;99.90;;;;;;5049552;28;20056;-43
2023/01/07 09:02:16;;;;;;;9.93;7.50;;;9.20;99.90;;;;;;5049315;28;20049;-44
2023/01/07 09:04:42;;;;;;;10.52;6.55;;;9.00;99.90;;;;;;5049680;28;20378;-44
2023/01/07 09:07:09;;;;;;;9.30;6.80;;;8.90;99.90;;;;;;5049875;28;20087;-44
2023/01/07 09:09:35;;;;;;;10.10;5.70;;;8.90;99.90;;;;;;5050154;28;20430;-45
2023/01/07 09:12:02;;;;;;;11.65;6.28;;;9.40;99.90;;;;;;5049877;28;20117;-44
2023/01/07 09:14:28;;;;;;;10.60;5.90;;;9.30;99.90;;;;;;5049636;28;20041;-44
2023/01/07 09:16:54;;;;;;;13.05;5.68;;;9.20;99.90;;;;;;5049226;28;20056;-44
2023/01/07 09:19:19;;;;;;;9.10;5.72;;;9.20;99.90;;;;;;5047736;28;20079;-44
2023/01/07 09:21:46;;;;;;;6.05;5.30;;;9.10;99.90;;;;;;5049105;28;20083;-44
2023/01/07 09:24:11;;;;;;;9.73;5.07;;;9.20;99.90;;;;;;5049094;28;20687;-43
2023/01/07 09:26:37;;;;;;;7.57;5.00;;;9.20;99.90;;;;;;5049416;28;20040;-44
2023/01/07 09:29:03;;;;;;;5.50;4.45;;;9.40;99.90;;;;;;5049405;28;20049;-45
2023/01/07 09:31:28;;;;;;;7.82;4.30;;;9.20;99.90;;;;;;5048854;28;20041;-44
2023/01/07 09:33:54;;;;;;;7.60;4.80;;;9.20;99.90;;;;;;5048944;28;20045;-45
2023/01/07 09:36:20;;;;;;;7.03;4.55;;;9.30;99.90;;;;;;5048561;28;20064;-43
2023/01/07 09:38:46;;;;;;;7.65;4.85;;;9.30;99.90;;;;;;5049185;28;20372;-44
2023/01/07 09:41:29;;;;;;;9.75;4.50;;;9.50;99.90;;;;;;5032341;28;20072;-44
2023/01/07 09:44:06;;;;;;;6.43;4.20;;;9.30;99.90;;;;;;5047309;28;20080;-45
2023/01/07 09:46:32;;;;;;;6.30;4.22;;;9.20;99.90;;;;;;5047304;28;20048;-45
2023/01/07 09:49:02;;;;;;;5.95;3.80;;;9.30;99.90;;;;;;5047223;28;20587;-44
2023/01/07 09:51:35;;;;;;;8.05;3.60;;;9.60;99.90;;;;;;5047164;28;20072;-43
2023/01/07 09:54:04;;;;;;;7.90;3.50;;;9.30;99.90;;;;;;5047261;28;20120;-43
2023/01/07 09:56:33;;;;;;;5.15;3.80;;;9.30;99.90;;;;;;5047027;28;20441;-44
2023/01/07 09:59:01;;;;;;;3.97;3.42;;;9.50;99.90;;;;;;5046976;28;20793;-44
2023/01/07 10:01:32;;;;;;;4.97;3.13;;;9.40;99.90;;;;;;5046929;28;20064;-44
2023/01/07 10:04:23;;;;;;;4.68;3.10;;;9.40;99.90;;;;;;5046741;28;20415;-44
2023/01/07 10:07:07;;;;;;;6.03;2.45;;;9.40;99.90;;;;;;5046757;28;20584;-44
2023/01/07 10:09:48;;;;;;;6.22;2.80;;;9.50;99.90;;;;;;5046912;28;20080;-44
2023/01/07 10:12:33;;;;;;;4.78;2.53;;;9.50;99.90;;;;;;5046636;28;20048;-44
2023/01/07 10:15:01;;;;;;;5.38;2.65;;;9.60;99.90;;;;;;5046643;28;20056;-45
2023/01/07 10:17:33;;;;;;;5.32;2.30;;;9.60;99.90;;;;;;5046572;28;20505;-43
2023/01/07 10:20:20;;;;;;;4.10;2.78;;;9.60;99.90;;;;;;5046711;28;20049;-45
2023/01/07 10:23:22;;;;;;;5.15;2.22;;;9.70;99.90;;;;;;5046716;28;20040;-44
2023/01/07 10:25:52;;;;;;;4.18;2.10;;;9.60;99.90;;;;;;5046684;28;20699;-44
2023/01/07 10:28:42;;;;;;;3.53;2.10;;;9.60;99.90;;;;;;5046612;28;20098;-44
2023/01/07 10:31:16;;;;;;;3.83;2.15;;;9.60;99.90;;;;;;5007581;28;20060;-44
2023/01/07 10:33:44;;;;;;;3.55;2.10;;;9.70;99.90;;;;;;5046333;28;20053;-43
2023/01/07 10:36:27;;;;;;;2.53;1.42;;;9.70;99.90;;;;;;5046869;28;20045;-45
2023/01/07 10:39:30;;;;;;;5.00;1.70;;;9.80;99.90;;;;;;5046610;28;20045;-44
2023/01/07 10:42:27;;;;;;;2.97;1.50;;;9.80;99.90;;;;;;5027649;28;20065;-45
2023/01/07 10:45:19;;;;;;;2.08;1.25;;;9.90;99.90;;;;;;5046765;28;20056;-45
2023/01/07 10:47:58;;;;;;;3.10;1.40;;;9.80;99.90;;;;;;5046479;28;20055;-45
2023/01/07 10:50:58;;;;;;;1.90;0.82;;;9.90;99.90;;;;;;5046178;28;20052;-46
2023/01/07 10:53:48;;;;;;;2.95;1.35;;;9.90;99.90;;;;;;5045893;28;20475;-44
2023/01/07 10:56:35;;;;;;;6.20;1.50;;;9.90;99.90;;;;;;5045498;28;20041;-46
2023/01/07 10:59:00;;;;;;;4.90;1.40;;;9.90;99.90;;;;;;5046067;28;20052;-44
2023/01/07 11:01:36;;;;;;;2.72;1.17;;;9.90;99.90;;;;;;5045615;28;20061;-44
2023/01/07 11:04:03;;;;;;;3.03;0.90;;;9.90;99.90;;;;;;5045455;28;20055;-45
2023/01/07 11:06:49;;;;;;;3.10;1.30;;;9.90;99.90;;;;;;5045650;28;20049;-45
2023/01/07 11:09:40;;;;;;;3.10;1.40;;;9.90;99.90;;;;;;5045487;28;20036;-44
2023/01/07 11:12:30;;;;;;;2.97;1.70;;;9.90;99.90;;;;;;5045923;28;20056;-46
2023/01/07 11:14:58;;;;;;;1.42;0.93;;;10.00;99.90;;;;;;5045907;28;20040;-44
2023/01/07 11:17:39;;;;;;;3.47;0.90;;;10.20;99.90;;;;;;5045130;28;20048;-44
2023/01/07 11:20:05;;;;;;;4.43;1.00;;;10.10;99.90;;;;;;5045597;28;20076;-44
2023/01/07 11:22:37;;;;;;;1.80;0.80;;;10.10;99.90;;;;;;5045194;28;20566;-45
2023/01/07 11:25:25;;;;;;;2.10;0.73;;;10.10;99.90;;;;;;5045726;28;20052;-44
2023/01/07 11:27:51;;;;;;;2.88;0.65;;;10.20;99.90;;;;;;5045826;28;20049;-46
2023/01/07 11:30:30;;;;;;;1.60;0.80;;;10.20;99.90;;;;;;5045118;28;20037;-45
2023/01/07 11:33:00;;;;;;;3.30;0.95;;;10.10;99.90;;;;;;5044733;28;20828;-45
2023/01/07 11:35:27;;;;;;;2.75;0.90;;;10.30;99.90;;;;;;5045056;28;20049;-44
2023/01/07 11:37:54;;;;;;;3.00;0.85;;;10.20;99.90;;;;;;5045531;28;20049;-44
2023/01/07 11:40:28;;;;;;;3.53;1.10;;;10.20;99.90;;;;;;5026511;28;20049;-43
2023/01/07 11:42:55;;;;;;;1.50;0.90;;;10.30;99.90;;;;;;5045017;28;20697;-44
2023/01/07 11:45:30;;;;;;;2.33;0.85;;;10.20;99.90;;;;;;5044963;28;20147;-44
2023/01/07 11:48:14;;;;;;;1.83;0.93;;;10.20;99.90;;;;;;5045239;28;20125;-43
2023/01/07 11:50:58;;;;;;;3.50;0.88;;;10.20;99.90;;;;;;5044788;28;20554;-44
2023/01/07 11:53:57;;;;;;;1.92;0.77;;;10.20;99.90;;;;;;5044786;28;20044;-44
2023/01/07 11:56:29;;;;;;;1.70;0.80;;;10.20;99.90;;;;;;5045008;28;20045;-45
2023/01/07 11:59:10;;;;;;;3.58;0.80;;;10.40;99.90;;;;;;5045335;28;20045;-45
2023/01/07 12:01:43;;;;;;;2.55;0.80;;;10.30;99.90;;;;;;5060477;28;20065;-46
2023/01/07 12:04:20;;;;;;;1.90;0.70;;;10.20;99.90;;;;;;5047136;28;20052;-45
2023/01/07 12:06:48;;;;;;;2.80;0.77;;;10.20;99.90;;;;;;5046909;28;20099;-46
2023/01/07 12:09:23;;;;;;;2.38;0.77;;;10.20;99.90;;;;;;5050564;28;20495;-46
2023/01/07 12:11:50;;;;;;;1.80;0.63;;;10.30;99.90;;;;;;5050083;28;20509;-46
2023/01/07 12:14:15;;;;;;;2.10;0.77;;;10.30;99.90;;;;;;5050766;28;20048;-46
2023/01/07 12:16:45;;;;;;;1.90;0.70;;;10.50;99.90;;;;;;5050357;28;20471;-44
2023/01/07 12:19:14;;;;;;;1.85;0.60;;;10.30;99.90;;;;;;5051005;28;20045;-45
2023/01/07 12:21:59;;;;;;;2.63;0.73;;;10.50;99.90;;;;;;5050501;28;20127;-46
2023/01/07 12:24:51;;;;;;;2.75;0.95;;;10.50;99.90;;;;;;5050800;28;20079;-44
2023/01/07 12:27:38;;;;;;;1.58;0.50;;;10.50;99.90;;;;;;5050944;28;20063;-45
2023/01/07 12:30:23;;;;;;;2.65;0.50;;;10.50;99.90;;;;;;5050589;28;20051;-48
2023/01/07 12:33:10;;;;;;;2.17;0.82;;;10.50;99.90;;;;;;5050675;28;20364;-46
2023/01/07 12:35:44;;;;;;;1.65;0.63;;;10.50;99.90;;;;;;5050322;28;20059;-44
2023/01/07 12:38:45;;;;;;;1.98;0.75;;;10.50;99.90;;;;;;5050407;28;20099;-47
2023/01/07 12:41:18;;;;;;;1.20;0.50;;;10.60;99.90;;;;;;5045445;28;20051;-44
2023/01/07 12:44:03;;;;;;;1.35;0.60;;;10.50;99.90;;;;;;5049617;28;20157;-46
2023/01/07 12:46:57;;;;;;;1.70;0.63;;;10.50;99.90;;;;;;5050299;28;20032;-45
2023/01/07 12:49:32;;;;;;;2.97;0.45;;;10.30;99.90;;;;;;5049996;28;20084;-45
2023/01/07 12:52:06;;;;;;;1.73;0.60;;;10.20;99.90;;;;;;5050266;28;20536;-47
2023/01/07 12:54:56;;;;;;;1.50;0.65;;;10.10;99.90;;;;;;5050157;28;20144;-46
2023/01/07 12:57:26;;;;;;;1.25;0.30;;;10.00;99.90;;;;;;5050065;28;20040;-46
2023/01/07 13:00:18;;;;;;;1.85;0.65;;;10.20;99.90;;;;;;5049939;28;20640;-46
2023/01/07 13:03:28;;;;;;;1.08;0.38;;;9.90;99.90;;;;;;5010157;28;20061;-45